Time;durP1;ratioP1;P1;durP2;ratioP2;P2;SDS_P1;SDS_P2;PMS_P1;PMS_P2;Temp;Humidity;BMP_temperature;BMP_pressure;BME280_temperature;BME280_humidity;BME280_pressure;Samples;Min_cycle;Max_cycle;Signal;HPM_P1;HPM_P2
2021/06/13 05:53:32;;;;;;;1054.82;965.78;;;;;;;;;;4475733;31;106813;-38
2021/06/13 05:55:58;;;;;;;1053.95;965.40;;;;;;;;;;4465837;32;20030;-38
2021/06/13 05:58:24;;;;;;;1055.25;966.40;;;;;;;;;;4478042;32;20033;-38
2021/06/13 06:00:53;;;;;;;1053.38;964.38;;;;;;;;;;4469483;32;20404;-38
2021/06/13 06:03:22;;;;;;;1051.85;963.22;;;;;;;;;;4476165;32;20032;-38
2021/06/13 06:05:50;;;;;;;1053.13;964.33;;;;;;;;;;4480268;32;20500;-39
2021/06/13 06:08:17;;;;;;;1055.07;965.92;;;;;;;;;;4480842;32;20044;-38
2021/06/13 06:10:45;;;;;;;1054.88;965.62;;;;;;;;;;4478666;32;20335;-39
2021/06/13 06:13:11;;;;;;;1051.88;962.80;;;;;;;;;;4461295;32;20041;-43
2021/06/13 06:15:40;;;;;;;1054.22;964.60;;;;;;;;;;4463614;32;20037;-42
2021/06/13 06:18:06;;;;;;;1053.63;964.55;;;;;;;;;;4466833;32;20032;-43
2021/06/13 06:20:33;;;;;;;1052.88;963.53;;;;;;;;;;4465981;32;20168;-42
2021/06/13 06:23:00;;;;;;;1057.75;967.72;;;;;;;;;;4456692;32;20033;-42
2021/06/13 06:25:28;;;;;;;1054.10;964.53;;;;;;;;;;4465123;32;20026;-44
2021/06/13 06:27:55;;;;;;;1057.75;967.85;;;;;;;;;;4456688;32;20033;-43
2021/06/13 06:30:21;;;;;;;1052.80;963.42;;;;;;;;;;4464116;32;20037;-44
2021/06/13 06:32:48;;;;;;;1059.47;969.33;;;;;;;;;;4459769;32;20368;-44
2021/06/13 06:35:15;;;;;;;1053.35;963.55;;;;;;;;;;4459783;32;20383;-44
2021/06/13 06:37:44;;;;;;;1059.65;969.33;;;;;;;;;;4454467;32;20029;-44
2021/06/13 06:40:11;;;;;;;1057.25;967.20;;;;;;;;;;4463101;32;20032;-43
2021/06/13 06:42:37;;;;;;;1057.07;967.17;;;;;;;;;;4458529;32;20109;-44
2021/06/13 06:45:06;;;;;;;1055.85;966.03;;;;;;;;;;4448058;32;20107;-43
2021/06/13 06:47:32;;;;;;;1056.57;966.58;;;;;;;;;;4450241;32;20033;-43
2021/06/13 06:49:58;;;;;;;1055.57;965.58;;;;;;;;;;4458404;32;20391;-43
2021/06/13 06:52:24;;;;;;;1058.30;967.95;;;;;;;;;;4453835;32;20112;-43
2021/06/13 06:54:51;;;;;;;1056.65;966.53;;;;;;;;;;4462767;32;20026;-43
2021/06/13 06:57:17;;;;;;;1059.60;969.20;;;;;;;;;;4449995;32;20089;-44
2021/06/13 06:59:43;;;;;;;1056.78;966.70;;;;;;;;;;4447322;32;20167;-43
2021/06/13 07:02:13;;;;;;;1057.63;967.47;;;;;;;;;;4461636;32;20040;-43
2021/06/13 07:04:41;;;;;;;1058.47;967.97;;;;;;;;;;4453908;32;20037;-43
2021/06/13 07:07:07;;;;;;;1058.18;967.90;;;;;;;;;;4454140;32;20029;-44
2021/06/13 07:09:36;;;;;;;1054.30;963.95;;;;;;;;;;4450632;32;20112;-43
2021/06/13 07:12:04;;;;;;;1054.57;964.72;;;;;;;;;;4451378;32;20136;-44
2021/06/13 07:14:33;;;;;;;1056.78;966.67;;;;;;;;;;4442038;32;20033;-42
2021/06/13 07:16:59;;;;;;;1053.57;963.72;;;;;;;;;;4448180;32;20029;-43
2021/06/13 07:19:25;;;;;;;1055.63;965.38;;;;;;;;;;4437889;32;20323;-44
2021/06/13 07:21:51;;;;;;;1053.72;963.78;;;;;;;;;;4437356;32;20101;-46
2021/06/13 07:24:17;;;;;;;1053.07;962.97;;;;;;;;;;4451773;32;20037;-44
2021/06/13 07:26:45;;;;;;;1054.47;964.20;;;;;;;;;;4447580;32;20096;-44
2021/06/13 07:29:11;;;;;;;1056.03;965.70;;;;;;;;;;4439045;32;20453;-44
2021/06/13 07:31:40;;;;;;;1053.20;963.17;;;;;;;;;;4441269;32;20029;-43
2021/06/13 07:34:06;;;;;;;1055.78;965.38;;;;;;;;;;4454112;32;20030;-43
2021/06/13 07:36:35;;;;;;;1053.45;963.25;;;;;;;;;;4451443;32;20353;-44
2021/06/13 07:39:01;;;;;;;1055.55;965.17;;;;;;;;;;4452501;32;20121;-43
2021/06/13 07:41:29;;;;;;;1053.18;963.05;;;;;;;;;;4448294;32;20081;-43
2021/06/13 07:43:58;;;;;;;1056.03;965.42;;;;;;;;;;4448525;32;20030;-44
2021/06/13 07:46:26;;;;;;;1051.85;961.92;;;;;;;;;;4439541;32;20144;-43
2021/06/13 07:48:56;;;;;;;1056.43;965.83;;;;;;;;;;4448307;32;20090;-43
2021/06/13 07:51:22;;;;;;;1057.20;966.50;;;;;;;;;;4451902;32;20311;-42
2021/06/13 07:53:48;;;;;;;1058.25;967.42;;;;;;;;;;4462664;32;20029;-43
2021/06/13 07:56:14;;;;;;;1055.93;965.33;;;;;;;;;;4463644;32;20114;-43
2021/06/13 07:58:43;;;;;;;1058.80;967.95;;;;;;;;;;4466945;32;20122;-43
2021/06/13 08:01:09;;;;;;;1056.57;965.87;;;;;;;;;;4453603;32;20083;-42
2021/06/13 08:03:38;;;;;;;1054.68;964.20;;;;;;;;;;4454918;32;20038;-44
2021/06/13 08:06:04;;;;;;;1055.22;964.25;;;;;;;;;;4457186;32;20374;-42
2021/06/13 08:08:32;;;;;;;1057.13;966.28;;;;;;;;;;4454726;32;20052;-43
2021/06/13 08:11:01;;;;;;;1056.63;965.58;;;;;;;;;;4438187;32;20056;-45
2021/06/13 08:13:29;;;;;;;1059.25;968.17;;;;;;;;;;4453047;32;20346;-44
2021/06/13 08:15:55;;;;;;;1052.82;962.20;;;;;;;;;;4454729;32;20045;-43
2021/06/13 08:18:21;;;;;;;1057.97;967.08;;;;;;;;;;4458268;32;20579;-43
2021/06/13 08:20:47;;;;;;;1057.10;966.15;;;;;;;;;;4459039;32;20091;-44
2021/06/13 08:23:16;;;;;;;1059.32;968.08;;;;;;;;;;4462388;32;20123;-43
2021/06/13 08:25:44;;;;;;;1056.43;965.70;;;;;;;;;;4453933;32;20068;-43
2021/06/13 08:28:13;;;;;;;1056.90;963.92;;;;;;;;;;4458935;32;20052;-44
2021/06/13 08:30:39;;;;;;;1055.50;964.17;;;;;;;;;;4467820;32;20063;-46
2021/06/13 08:33:05;;;;;;;1054.32;963.25;;;;;;;;;;4461910;32;20430;-43
2021/06/13 08:35:33;;;;;;;1055.53;964.85;;;;;;;;;;4458558;32;20487;-43
2021/06/13 08:38:02;;;;;;;1055.97;964.72;;;;;;;;;;4452797;32;20081;-43
2021/06/13 08:40:28;;;;;;;1055.70;964.33;;;;;;;;;;4451734;32;20033;-43
2021/06/13 08:42:57;;;;;;;1053.03;962.08;;;;;;;;;;4461889;32;20029;-44
2021/06/13 08:45:26;;;;;;;1060.57;969.22;;;;;;;;;;4452949;32;20312;-44
2021/06/13 08:47:54;;;;;;;1057.07;965.58;;;;;;;;;;4453606;32;20033;-43
2021/06/13 08:50:20;;;;;;;1055.00;964.33;;;;;;;;;;4463327;32;20032;-44
2021/06/13 08:52:50;;;;;;;1055.97;964.90;;;;;;;;;;4467116;32;20116;-42
2021/06/13 08:55:21;;;;;;;1054.30;963.23;;;;;;;;;;4440321;32;20029;-43
2021/06/13 08:57:48;;;;;;;1054.50;963.63;;;;;;;;;;4436843;32;20136;-43
2021/06/13 09:00:18;;;;;;;1057.85;966.87;;;;;;;;;;4443043;32;20121;-44
2021/06/13 09:02:46;;;;;;;1054.88;964.08;;;;;;;;;;4451978;32;20057;-45
2021/06/13 09:05:18;;;;;;;1056.72;965.53;;;;;;;;;;4450945;32;20369;-42
2021/06/13 09:07:55;;;;;;;1058.25;966.92;;;;;;;;;;4459051;32;20063;-42
2021/06/13 09:10:23;;;;;;;1058.40;967.17;;;;;;;;;;4458936;32;20124;-41
2021/06/13 09:12:52;;;;;;;1058.57;967.08;;;;;;;;;;4450297;32;20033;-42
2021/06/13 09:15:35;;;;;;;1058.50;967.13;;;;;;;;;;4441882;32;20447;-42
2021/06/13 09:18:03;;;;;;;1060.72;969.08;;;;;;;;;;4452154;32;20055;-42
2021/06/13 09:20:32;;;;;;;1059.57;968.03;;;;;;;;;;4451626;32;20073;-42
2021/06/13 09:23:27;;;;;;;1057.32;965.97;;;;;;;;;;4464067;32;20041;-42
2021/06/13 09:26:01;;;;;;;1055.45;964.20;;;;;;;;;;4454415;32;20037;-42
2021/06/13 09:28:30;;;;;;;1057.32;965.65;;;;;;;;;;4467092;32;20036;-43
2021/06/13 09:30:59;;;;;;;1057.65;966.25;;;;;;;;;;4465541;32;20025;-42
2021/06/13 09:33:28;;;;;;;1056.57;965.33;;;;;;;;;;4456901;32;20046;-42
2021/06/13 09:35:56;;;;;;;1056.80;965.30;;;;;;;;;;4445675;32;20324;-42
2021/06/13 09:38:45;;;;;;;1058.13;966.67;;;;;;;;;;4466096;32;20037;-46
2021/06/13 09:41:19;;;;;;;1058.28;966.75;;;;;;;;;;4436614;32;20081;-43
2021/06/13 09:43:48;;;;;;;1057.88;966.35;;;;;;;;;;4436609;32;20313;-42
2021/06/13 09:46:18;;;;;;;1058.63;967.10;;;;;;;;;;4436012;32;20406;-42
2021/06/13 09:48:51;;;;;;;1054.70;963.53;;;;;;;;;;4443676;32;20443;-41
2021/06/13 09:51:19;;;;;;;1055.47;964.50;;;;;;;;;;4439815;32;20116;-42
2021/06/13 09:53:55;;;;;;;1058.97;967.47;;;;;;;;;;4466234;32;20586;-43
2021/06/13 09:56:27;;;;;;;1058.90;967.30;;;;;;;;;;4466856;32;20372;-43
2021/06/13 09:58:53;;;;;;;1058.25;966.50;;;;;;;;;;4466081;32;20088;-42
2021/06/13 10:01:20;;;;;;;1060.53;968.67;;;;;;;;;;4467440;32;20065;-43
2021/06/13 10:03:47;;;;;;;1057.18;965.70;;;;;;;;;;4458609;32;20080;-41
2021/06/13 10:06:14;;;;;;;1064.07;971.75;;;;;;;;;;4451962;32;20098;-41
2021/06/13 10:08:42;;;;;;;1058.80;967.17;;;;;;;;;;4451921;32;20042;-43
2021/06/13 10:11:08;;;;;;;1062.25;970.30;;;;;;;;;;4452251;32;20106;-43
2021/06/13 10:13:41;;;;;;;1061.22;969.28;;;;;;;;;;4451532;32;20076;-42
2021/06/13 10:16:08;;;;;;;1059.13;967.40;;;;;;;;;;4451092;32;20056;-42
2021/06/13 10:18:39;;;;;;;1062.50;970.33;;;;;;;;;;4453947;32;20055;-43
2021/06/13 10:21:13;;;;;;;1057.88;966.33;;;;;;;;;;4452547;32;20041;-47
2021/06/13 10:23:41;;;;;;;1061.93;969.92;;;;;;;;;;4452482;32;20021;-41
2021/06/13 10:26:09;;;;;;;1063.55;971.05;;;;;;;;;;4452173;32;20082;-40
2021/06/13 10:28:35;;;;;;;1060.63;968.30;;;;;;;;;;4452584;32;20037;-41
2021/06/13 10:31:02;;;;;;;1063.93;971.20;;;;;;;;;;4454273;32;20116;-40
2021/06/13 10:33:28;;;;;;;1062.70;970.17;;;;;;;;;;4436024;32;20045;-40
2021/06/13 10:36:01;;;;;;;1061.07;968.85;;;;;;;;;;4442718;32;20060;-41
2021/06/13 10:38:29;;;;;;;1059.88;967.70;;;;;;;;;;4452651;32;20116;-40
2021/06/13 10:40:59;;;;;;;1063.03;970.60;;;;;;;;;;4457872;32;20029;-41
2021/06/13 10:43:27;;;;;;;1062.20;969.85;;;;;;;;;;4448715;32;20037;-40
2021/06/13 10:45:53;;;;;;;1061.88;969.53;;;;;;;;;;4440158;32;20410;-40
2021/06/13 10:48:21;;;;;;;1063.50;970.80;;;;;;;;;;4453818;32;20626;-40
2021/06/13 10:50:47;;;;;;;1062.60;970.12;;;;;;;;;;4467586;32;20392;-41
2021/06/13 10:53:16;;;;;;;1061.75;969.47;;;;;;;;;;4454580;32;20072;-41
2021/06/13 10:55:48;;;;;;;1060.10;968.05;;;;;;;;;;4451260;32;20489;-40
2021/06/13 10:58:33;;;;;;;1061.28;968.80;;;;;;;;;;4462799;32;20033;-40
2021/06/13 11:01:38;;;;;;;1062.72;970.37;;;;;;;;;;4437525;32;20214;-41
2021/06/13 11:04:07;;;;;;;1060.50;968.08;;;;;;;;;;4406061;32;20073;-40
2021/06/13 11:06:51;;;;;;;1062.90;970.10;;;;;;;;;;4453884;32;20416;-40
2021/06/13 11:09:18;;;;;;;1062.57;969.95;;;;;;;;;;4451368;32;20356;-40
2021/06/13 11:11:44;;;;;;;1062.40;969.78;;;;;;;;;;4454687;32;20077;-41
2021/06/13 11:14:26;;;;;;;1061.97;969.37;;;;;;;;;;4456382;32;20082;-40
2021/06/13 11:17:01;;;;;;;1059.28;966.97;;;;;;;;;;4467246;32;20079;-39
2021/06/13 11:19:32;;;;;;;1058.97;966.42;;;;;;;;;;4468703;32;20530;-45
2021/06/13 11:21:58;;;;;;;;;;;;;;;;;;4454396;32;20037;-47
2021/06/13 11:24:43;;;;;;;1058.80;966.33;;;;;;;;;;4454189;32;20001;-46
2021/06/13 11:27:09;;;;;;;1058.80;966.50;;;;;;;;;;4438704;32;20412;-46
2021/06/13 11:29:53;;;;;;;1064.30;971.67;;;;;;;;;;4450732;32;20032;-47
2021/06/13 11:32:38;;;;;;;1061.50;968.95;;;;;;;;;;4454164;32;20028;-47
2021/06/13 11:35:26;;;;;;;1060.57;968.17;;;;;;;;;;4436672;32;20062;-47
2021/06/13 11:38:11;;;;;;;1060.57;967.72;;;;;;;;;;4437839;32;20034;-45
2021/06/13 11:40:39;;;;;;;1057.05;964.70;;;;;;;;;;4436968;32;20059;-46
2021/06/13 11:43:09;;;;;;;1055.72;963.78;;;;;;;;;;4451438;32;20060;-46
2021/06/13 11:45:35;;;;;;;1061.38;968.78;;;;;;;;;;4469315;32;20104;-46
2021/06/13 11:48:20;;;;;;;1061.60;968.72;;;;;;;;;;4457696;32;20110;-46
2021/06/13 11:51:03;;;;;;;1056.22;964.15;;;;;;;;;;4452092;32;20074;-46
2021/06/13 11:53:48;;;;;;;1063.90;970.90;;;;;;;;;;4453246;32;20037;-47
2021/06/13 11:56:35;;;;;;;1058.88;966.58;;;;;;;;;;4451802;32;20072;-46
2021/06/13 11:59:13;;;;;;;1063.00;970.15;;;;;;;;;;4452846;32;20120;-46
2021/06/13 12:01:40;;;;;;;1060.22;967.53;;;;;;;;;;4453400;32;20043;-46
2021/06/13 12:04:13;;;;;;;1057.20;964.90;;;;;;;;;;4460471;32;20049;-46
2021/06/13 12:06:39;;;;;;;1061.50;968.78;;;;;;;;;;4440698;32;20507;-45
2021/06/13 12:09:09;;;;;;;1065.10;972.05;;;;;;;;;;4451851;32;20101;-45
2021/06/13 12:11:38;;;;;;;1064.35;971.33;;;;;;;;;;4454076;32;20388;-47
2021/06/13 12:14:17;;;;;;;1063.18;970.30;;;;;;;;;;4450468;32;20404;-46
2021/06/13 12:16:43;;;;;;;1061.47;968.72;;;;;;;;;;4451553;32;20106;-47
2021/06/13 12:19:09;;;;;;;1062.85;969.95;;;;;;;;;;4446522;32;20029;-46
2021/06/13 12:21:37;;;;;;;1062.63;969.83;;;;;;;;;;4446268;32;20087;-47
2021/06/13 12:24:32;;;;;;;1060.18;967.60;;;;;;;;;;4450820;32;20072;-47
2021/06/13 12:27:25;;;;;;;1064.55;971.33;;;;;;;;;;4436995;32;20030;-45
2021/06/13 12:29:54;;;;;;;1063.78;970.53;;;;;;;;;;4460709;32;20024;-47
2021/06/13 12:32:20;;;;;;;1062.88;969.75;;;;;;;;;;4469019;32;20034;-46
2021/06/13 12:34:52;;;;;;;1061.57;968.72;;;;;;;;;;4458563;32;20329;-48
2021/06/13 12:37:19;;;;;;;1064.22;970.95;;;;;;;;;;4451747;32;20030;-46
2021/06/13 12:39:57;;;;;;;1066.38;972.63;;;;;;;;;;4452192;32;20399;-46
2021/06/13 12:42:26;;;;;;;1064.87;971.40;;;;;;;;;;4452546;32;20076;-47
2021/06/13 12:45:04;;;;;;;1064.50;971.05;;;;;;;;;;4452586;32;20131;-47
2021/06/13 12:52:27;;;;;;;1069.78;975.58;;;;;;;;;;4474505;31;121779;-37
2021/06/13 12:55:02;;;;;;;1067.60;973.47;;;;;;;;;;4463802;32;20121;-61
2021/06/13 12:57:29;;;;;;;1072.30;976.75;;;;;;;;;;4463733;32;20055;-43
2021/06/13 12:59:58;;;;;;;1074.80;978.92;;;;;;;;;;4463035;32;20063;-49
2021/06/13 13:02:25;;;;;;;1071.55;976.58;;;;;;;;;;4465023;32;20450;-53
2021/06/13 13:04:52;;;;;;;1072.28;977.05;;;;;;;;;;4465943;32;20139;-48
2021/06/13 13:07:41;;;;;;;1073.20;977.58;;;;;;;;;;4457665;32;20041;-52
2021/06/13 13:10:12;;;;;;;1072.03;976.17;;;;;;;;;;4462113;32;20053;-48
2021/06/13 13:12:39;;;;;;;1075.50;979.60;;;;;;;;;;4462375;32;20033;-52
2021/06/13 13:15:11;;;;;;;1073.10;977.28;;;;;;;;;;4463781;32;20338;-50
2021/06/13 13:17:40;;;;;;;1072.47;976.83;;;;;;;;;;4465369;32;20037;-52
2021/06/13 13:20:15;;;;;;;1074.40;978.70;;;;;;;;;;4461817;32;20515;-52
2021/06/13 13:22:42;;;;;;;1077.15;980.90;;;;;;;;;;4447856;32;20046;-53
2021/06/13 13:25:14;;;;;;;1075.00;978.97;;;;;;;;;;4461686;32;20033;-53
2021/06/13 13:27:43;;;;;;;1073.43;977.60;;;;;;;;;;4455854;32;20094;-52
2021/06/13 13:30:29;;;;;;;1076.50;980.08;;;;;;;;;;4463464;32;20030;-52
2021/06/13 13:33:02;;;;;;;1074.30;978.17;;;;;;;;;;4463542;32;20372;-52
2021/06/13 13:35:46;;;;;;;1075.90;979.60;;;;;;;;;;4464326;32;20093;-52
2021/06/13 13:38:15;;;;;;;1072.43;976.70;;;;;;;;;;4462690;32;20017;-53
2021/06/13 13:40:52;;;;;;;1074.95;978.53;;;;;;;;;;4449128;32;20034;-52
2021/06/13 13:43:18;;;;;;;1075.43;979.28;;;;;;;;;;4451823;32;20108;-53
2021/06/13 13:45:46;;;;;;;1076.15;979.92;;;;;;;;;;4464745;32;20109;-49
2021/06/13 13:48:18;;;;;;;1075.28;979.15;;;;;;;;;;4448264;32;20071;-51
2021/06/13 13:50:51;;;;;;;1076.45;980.05;;;;;;;;;;4463490;32;20108;-53
2021/06/13 13:53:22;;;;;;;1076.85;980.67;;;;;;;;;;4463327;32;20037;-53
2021/06/13 13:55:52;;;;;;;1076.97;980.63;;;;;;;;;;4460542;32;20029;-51
2021/06/13 13:58:19;;;;;;;1074.95;978.97;;;;;;;;;;4455111;32;20069;-52
2021/06/13 14:00:47;;;;;;;1075.93;979.97;;;;;;;;;;4457260;32;20068;-51
2021/06/13 14:03:13;;;;;;;1075.03;978.83;;;;;;;;;;4449855;32;20029;-51
2021/06/13 14:05:39;;;;;;;1075.93;979.70;;;;;;;;;;4454133;32;20103;-51
2021/06/13 14:08:05;;;;;;;1074.55;978.63;;;;;;;;;;4452935;32;20365;-52
2021/06/13 14:10:32;;;;;;;1075.75;979.83;;;;;;;;;;4452955;32;20068;-52
2021/06/13 14:12:57;;;;;;;1074.47;978.45;;;;;;;;;;4444061;32;20129;-50
2021/06/13 14:15:23;;;;;;;1073.35;977.42;;;;;;;;;;4441583;32;20347;-53
2021/06/13 14:17:49;;;;;;;1075.55;979.53;;;;;;;;;;4452466;32;20021;-51
2021/06/13 14:20:18;;;;;;;1074.93;978.70;;;;;;;;;;4444278;32;20071;-52
2021/06/13 14:22:44;;;;;;;1076.90;980.53;;;;;;;;;;4437183;32;20064;-52
2021/06/13 14:25:10;;;;;;;1075.50;979.15;;;;;;;;;;4438196;32;20029;-53
2021/06/13 14:27:39;;;;;;;1077.15;980.50;;;;;;;;;;4452430;32;20073;-52
2021/06/13 14:30:05;;;;;;;1075.07;978.92;;;;;;;;;;4453753;32;20060;-52
2021/06/13 14:32:33;;;;;;;1076.47;980.12;;;;;;;;;;4442950;32;20131;-51
2021/06/13 14:34:59;;;;;;;1076.45;979.92;;;;;;;;;;4445124;32;20064;-53
2021/06/13 14:37:26;;;;;;;1076.75;980.12;;;;;;;;;;4452975;32;20068;-52
2021/06/13 14:39:56;;;;;;;1075.88;979.33;;;;;;;;;;4446233;32;20110;-53
2021/06/13 14:42:24;;;;;;;1078.60;981.85;;;;;;;;;;4453292;32;20385;-54
2021/06/13 14:44:50;;;;;;;1079.40;982.38;;;;;;;;;;4450240;32;20033;-52
2021/06/13 14:47:19;;;;;;;1077.78;981.28;;;;;;;;;;4452412;32;20099;-53
2021/06/13 14:49:47;;;;;;;1075.88;979.20;;;;;;;;;;4452006;32;20438;-55
2021/06/13 14:52:13;;;;;;;1077.25;980.72;;;;;;;;;;4452075;32;20042;-54
2021/06/13 14:54:39;;;;;;;1075.10;978.78;;;;;;;;;;4452069;32;20032;-54
2021/06/13 14:57:07;;;;;;;1072.78;976.47;;;;;;;;;;4453529;32;20320;-54
2021/06/13 14:59:36;;;;;;;1074.38;977.92;;;;;;;;;;4453755;32;20064;-55
2021/06/13 15:02:03;;;;;;;1075.57;978.92;;;;;;;;;;4453821;32;20177;-53
2021/06/13 15:04:29;;;;;;;1075.20;978.60;;;;;;;;;;4453759;32;20104;-55
2021/06/13 15:06:55;;;;;;;1078.60;981.65;;;;;;;;;;4453418;32;20029;-55
2021/06/13 15:09:23;;;;;;;1076.88;979.63;;;;;;;;;;4449450;32;20442;-55
2021/06/13 15:11:49;;;;;;;1078.32;981.42;;;;;;;;;;4452711;32;20057;-55
2021/06/13 15:14:15;;;;;;;1078.95;982.05;;;;;;;;;;4445871;32;20395;-54
2021/06/13 15:16:41;;;;;;;1078.07;980.53;;;;;;;;;;4438074;32;20060;-51
2021/06/13 15:19:10;;;;;;;1079.50;978.80;;;;;;;;;;4441926;32;20048;-58
2021/06/13 15:21:36;;;;;;;1077.18;978.67;;;;;;;;;;4452025;32;20077;-53
2021/06/13 15:24:03;;;;;;;1076.50;979.17;;;;;;;;;;4452435;32;20057;-57
2021/06/13 15:26:29;;;;;;;1077.65;979.95;;;;;;;;;;4452110;32;20029;-51
2021/06/13 15:28:55;;;;;;;1079.20;981.47;;;;;;;;;;4450806;32;20391;-52
2021/06/13 15:31:22;;;;;;;1078.03;980.60;;;;;;;;;;4449311;32;20071;-51
2021/06/13 15:33:48;;;;;;;1080.35;982.35;;;;;;;;;;4452429;32;20086;-52
2021/06/13 15:36:14;;;;;;;1080.60;982.90;;;;;;;;;;4451746;32;20041;-52
2021/06/13 15:38:41;;;;;;;1078.80;981.38;;;;;;;;;;4442414;32;20372;-49
2021/06/13 15:41:07;;;;;;;1079.70;982.08;;;;;;;;;;4441875;32;20383;-51
2021/06/13 15:43:33;;;;;;;1079.25;981.78;;;;;;;;;;4452538;32;20034;-50
2021/06/13 15:45:59;;;;;;;1078.97;981.22;;;;;;;;;;4451814;32;20060;-51
2021/06/13 15:48:25;;;;;;;1079.72;982.25;;;;;;;;;;4448854;32;20030;-51
2021/06/13 15:50:53;;;;;;;1077.78;980.55;;;;;;;;;;4452306;32;20045;-52
2021/06/13 15:53:19;;;;;;;1080.63;982.78;;;;;;;;;;4451394;32;20097;-52
2021/06/13 15:55:48;;;;;;;1079.13;981.67;;;;;;;;;;4452131;32;20100;-53
2021/06/13 15:58:49;;;;;;;1079.95;982.58;;;;;;;;;;4452192;32;20033;-52
2021/06/13 16:01:07;;;;;;;1079.20;981.65;;;;;;;;;;4450635;32;20077;-50
2021/06/13 16:03:33;;;;;;;1079.85;982.20;;;;;;;;;;4452211;32;20025;-52
2021/06/13 16:06:02;;;;;;;1081.78;984.00;;;;;;;;;;4450376;32;20081;-51
2021/06/13 16:08:28;;;;;;;1080.30;982.67;;;;;;;;;;4450721;32;20547;-49
2021/06/13 16:10:55;;;;;;;1080.20;982.55;;;;;;;;;;4450526;32;20041;-46
2021/06/13 16:13:21;;;;;;;1079.43;981.70;;;;;;;;;;4452166;32;20586;-50
2021/06/13 16:15:47;;;;;;;1077.38;979.83;;;;;;;;;;4452380;32;20068;-48
2021/06/13 16:18:13;;;;;;;1081.50;983.45;;;;;;;;;;4450375;32;20447;-51
2021/06/13 16:20:41;;;;;;;1079.13;981.30;;;;;;;;;;4451503;32;20093;-53
2021/06/13 16:23:07;;;;;;;1079.53;981.83;;;;;;;;;;4452398;32;20033;-54
2021/06/13 16:25:33;;;;;;;1079.05;981.20;;;;;;;;;;4445105;32;20150;-56
2021/06/13 16:28:00;;;;;;;1079.68;981.95;;;;;;;;;;4447504;32;20161;-60
2021/06/13 16:30:26;;;;;;;1080.15;982.13;;;;;;;;;;4440937;32;20459;-51
